Time;durP1;ratioP1;P1;durP2;ratioP2;P2;SDS_P1;SDS_P2;PMS_P1;PMS_P2;Temp;Humidity;BMP_temperature;BMP_pressure;BME280_temperature;BME280_humidity;BME280_pressure;Samples;Min_cycle;Max_cycle;Signal;HPM_P1;HPM_P2
2021/10/23 00:00:34;;;;;;;16.92;2.78;;;6.10;99.90;;;;;;5091833;28;20588;-45
2021/10/23 00:02:59;;;;;;;15.18;2.63;;;6.10;99.90;;;;;;5092247;28;20103;-45
2021/10/23 00:05:25;;;;;;;25.15;3.42;;;6.00;99.90;;;;;;5091580;28;20036;-45
2021/10/23 00:07:51;;;;;;;17.38;2.58;;;6.00;99.90;;;;;;5089805;28;20016;-47
2021/10/23 00:10:16;;;;;;;17.90;3.33;;;6.00;99.90;;;;;;5091105;28;20379;-46
2021/10/23 00:12:42;;;;;;;16.60;2.90;;;5.90;99.90;;;;;;5091417;28;20032;-46
2021/10/23 00:15:08;;;;;;;18.17;3.55;;;6.00;99.90;;;;;;5091394;28;20028;-45
2021/10/23 00:17:34;;;;;;;13.07;2.97;;;6.00;99.90;;;;;;5090866;28;20100;-46
2021/10/23 00:20:01;;;;;;;12.73;2.70;;;5.90;99.90;;;;;;5090493;28;20512;-45
2021/10/23 00:22:30;;;;;;;18.13;2.85;;;6.00;99.90;;;;;;5091188;28;20017;-45
2021/10/23 00:24:56;;;;;;;15.05;3.05;;;5.90;99.90;;;;;;5074953;28;20024;-46
2021/10/23 00:27:22;;;;;;;20.52;3.65;;;5.90;99.90;;;;;;5081975;28;20054;-45
2021/10/23 00:29:48;;;;;;;13.98;3.97;;;5.90;99.90;;;;;;5090864;28;20027;-45
2021/10/23 00:32:14;;;;;;;12.80;2.70;;;5.90;99.90;;;;;;5089620;28;20024;-45
2021/10/23 00:34:39;;;;;;;21.38;4.93;;;5.90;99.90;;;;;;5090893;28;20061;-45
2021/10/23 00:37:05;;;;;;;21.70;3.85;;;5.90;99.90;;;;;;5090045;28;20441;-47
2021/10/23 00:39:30;;;;;;;33.90;4.00;;;5.90;99.90;;;;;;5090712;28;20123;-45
2021/10/23 00:41:56;;;;;;;17.90;3.03;;;5.90;99.90;;;;;;5089374;28;20035;-44
2021/10/23 00:44:33;;;;;;;16.02;3.38;;;5.90;99.90;;;;;;5090708;28;20035;-44
2021/10/23 00:47:13;;;;;;;12.82;3.15;;;6.00;99.90;;;;;;5090406;28;20024;-43
2021/10/23 00:49:40;;;;;;;13.98;2.40;;;6.00;99.90;;;;;;5090496;28;20020;-43
2021/10/23 00:52:07;;;;;;;13.77;2.40;;;6.00;99.90;;;;;;5090441;28;20125;-43
2021/10/23 00:54:34;;;;;;;20.45;2.63;;;6.00;99.90;;;;;;5074187;28;20017;-43
2021/10/23 00:57:00;;;;;;;12.80;3.22;;;6.00;99.90;;;;;;5081399;28;20028;-43
2021/10/23 00:59:26;;;;;;;26.42;3.58;;;6.00;99.90;;;;;;5090385;28;20035;-43
2021/10/23 01:01:52;;;;;;;24.33;2.92;;;6.00;99.90;;;;;;5090324;28;20031;-44
2021/10/23 01:04:22;;;;;;;25.20;3.22;;;5.90;99.90;;;;;;5090078;28;20482;-44
2021/10/23 01:06:48;;;;;;;17.53;3.03;;;5.90;99.90;;;;;;5090093;28;20024;-44
2021/10/23 01:09:14;;;;;;;19.10;3.28;;;6.00;99.90;;;;;;5089299;28;20012;-44
2021/10/23 01:11:41;;;;;;;11.55;2.90;;;6.00;99.90;;;;;;5089962;28;20103;-44
2021/10/23 01:14:14;;;;;;;13.68;3.05;;;6.00;99.90;;;;;;5090401;28;20027;-43
2021/10/23 01:16:41;;;;;;;17.38;3.08;;;6.00;99.90;;;;;;5090144;28;20422;-43
2021/10/23 01:19:09;;;;;;;18.63;3.35;;;6.00;99.90;;;;;;5089396;28;20457;-43
2021/10/23 01:21:35;;;;;;;15.80;2.88;;;6.00;99.90;;;;;;5088633;28;20477;-45
2021/10/23 01:24:00;;;;;;;17.17;3.50;;;6.00;99.90;;;;;;5082516;28;20032;-45
2021/10/23 01:26:26;;;;;;;18.52;3.03;;;6.00;99.90;;;;;;5073455;28;20024;-44
2021/10/23 01:28:52;;;;;;;15.50;3.25;;;6.10;99.90;;;;;;5088609;28;20058;-44
2021/10/23 01:31:18;;;;;;;24.38;3.50;;;6.10;99.90;;;;;;5088953;28;20020;-44
2021/10/23 01:33:44;;;;;;;14.23;2.63;;;6.10;99.90;;;;;;5090277;28;20073;-43
2021/10/23 01:36:17;;;;;;;20.90;3.60;;;6.10;99.90;;;;;;5089889;28;20024;-44
2021/10/23 01:38:44;;;;;;;12.43;3.42;;;6.20;99.90;;;;;;5088943;28;20025;-44
2021/10/23 01:41:10;;;;;;;18.52;3.08;;;6.20;99.90;;;;;;5089564;28;20110;-46
2021/10/23 01:43:36;;;;;;;16.77;3.03;;;6.30;99.90;;;;;;5089741;28;20073;-45
2021/10/23 01:46:02;;;;;;;17.83;3.03;;;6.30;99.90;;;;;;5089439;28;20078;-43
2021/10/23 01:48:28;;;;;;;20.80;3.33;;;6.30;99.90;;;;;;5088897;28;20400;-44
2021/10/23 01:50:54;;;;;;;16.58;3.70;;;6.30;99.90;;;;;;5089587;28;20028;-44
2021/10/23 01:53:20;;;;;;;18.23;4.20;;;6.30;99.90;;;;;;5088289;28;20024;-43
2021/10/23 01:55:46;;;;;;;15.65;2.58;;;6.30;99.90;;;;;;5071619;28;20070;-46
2021/10/23 01:58:15;;;;;;;12.02;2.65;;;6.30;99.90;;;;;;5081118;28;20020;-43
2021/10/23 02:00:41;;;;;;;16.65;3.10;;;6.20;99.90;;;;;;5089274;28;20029;-43
2021/10/23 02:03:06;;;;;;;21.20;3.85;;;6.20;99.90;;;;;;5089191;28;20036;-44
2021/10/23 02:05:32;;;;;;;15.75;2.75;;;6.10;99.90;;;;;;5089081;28;20316;-43
2021/10/23 02:07:57;;;;;;;14.05;2.50;;;6.10;99.90;;;;;;5088579;28;20103;-45
2021/10/23 02:10:23;;;;;;;20.08;4.20;;;6.10;99.90;;;;;;5088850;28;20375;-44
2021/10/23 02:12:48;;;;;;;19.58;3.03;;;6.00;99.90;;;;;;5088984;28;20103;-43
2021/10/23 02:15:14;;;;;;;18.02;3.25;;;6.00;99.90;;;;;;5088834;28;20111;-44
2021/10/23 02:17:39;;;;;;;28.20;4.07;;;6.00;99.90;;;;;;5088352;28;20024;-44
2021/10/23 02:20:08;;;;;;;14.88;3.45;;;5.90;99.90;;;;;;5088975;28;20028;-45
2021/10/23 02:22:33;;;;;;;21.60;3.63;;;5.90;99.90;;;;;;5087523;28;20370;-43
2021/10/23 02:24:59;;;;;;;12.55;3.40;;;5.90;99.90;;;;;;5074183;28;20030;-43
2021/10/23 02:27:24;;;;;;;20.80;3.35;;;5.90;99.90;;;;;;5079752;28;20031;-44
2021/10/23 02:29:50;;;;;;;24.73;3.53;;;5.90;99.90;;;;;;5087472;28;20341;-44
2021/10/23 02:32:16;;;;;;;16.05;3.20;;;5.80;99.90;;;;;;5088747;28;20028;-44
2021/10/23 02:34:41;;;;;;;12.85;3.05;;;5.80;99.90;;;;;;5088591;28;20035;-44
2021/10/23 02:37:07;;;;;;;19.33;4.00;;;5.80;99.90;;;;;;5088214;28;20089;-44
2021/10/23 02:39:33;;;;;;;15.48;3.90;;;5.80;99.90;;;;;;5088521;28;20505;-43
2021/10/23 02:41:58;;;;;;;22.73;3.80;;;5.80;99.90;;;;;;5088460;28;20374;-43
2021/10/23 02:44:24;;;;;;;17.95;3.20;;;5.70;99.90;;;;;;5087178;28;20032;-44
2021/10/23 02:46:49;;;;;;;20.30;3.55;;;5.70;99.90;;;;;;5088619;28;20032;-43
2021/10/23 02:49:17;;;;;;;12.13;3.20;;;5.70;99.90;;;;;;5088197;28;20028;-46
2021/10/23 02:51:42;;;;;;;21.90;3.60;;;5.70;99.90;;;;;;5088823;28;20474;-45
2021/10/23 02:54:08;;;;;;;12.07;2.60;;;5.80;99.90;;;;;;5080465;28;20032;-46
2021/10/23 02:56:33;;;;;;;13.55;2.58;;;5.70;99.90;;;;;;5073999;28;20478;-45
2021/10/23 02:58:59;;;;;;;14.25;3.75;;;5.80;99.90;;;;;;5088460;28;20036;-46
2021/10/23 03:01:24;;;;;;;14.50;2.70;;;5.80;99.90;;;;;;5088715;28;20036;-46
2021/10/23 03:03:51;;;;;;;12.90;3.38;;;5.80;99.90;;;;;;5088495;28;20076;-44
2021/10/23 03:06:18;;;;;;;17.40;3.60;;;5.90;99.90;;;;;;5087025;28;20025;-45
2021/10/23 03:08:44;;;;;;;13.70;3.10;;;5.90;99.90;;;;;;5087786;28;20772;-45
2021/10/23 03:11:10;;;;;;;20.25;3.55;;;5.90;99.90;;;;;;5088488;28;20028;-46
2021/10/23 03:13:35;;;;;;;11.80;3.80;;;6.00;99.90;;;;;;5088827;28;20020;-43
2021/10/23 03:16:00;;;;;;;21.85;3.17;;;6.00;99.90;;;;;;5088750;28;20036;-44
2021/10/23 03:18:26;;;;;;;13.32;3.38;;;6.00;99.90;;;;;;5087923;28;20612;-45
2021/10/23 03:20:53;;;;;;;19.95;3.15;;;6.00;99.90;;;;;;5088563;28;20040;-43
2021/10/23 03:23:19;;;;;;;12.95;3.47;;;6.00;99.90;;;;;;5088913;28;20020;-44
2021/10/23 03:25:45;;;;;;;17.02;2.78;;;6.00;99.90;;;;;;5071370;28;20024;-51
2021/10/23 03:28:11;;;;;;;16.25;3.38;;;6.10;99.90;;;;;;5081065;28;20042;-44
2021/10/23 03:30:37;;;;;;;19.02;3.00;;;6.10;99.90;;;;;;5088285;28;20020;-43
2021/10/23 03:33:03;;;;;;;11.60;3.42;;;6.10;99.90;;;;;;5088267;28;20393;-43
2021/10/23 03:35:28;;;;;;;10.20;2.67;;;6.10;99.90;;;;;;5088099;28;20096;-44
2021/10/23 03:37:54;;;;;;;13.45;3.42;;;6.10;99.90;;;;;;5087522;28;20032;-43
2021/10/23 03:40:19;;;;;;;15.13;3.03;;;6.10;99.90;;;;;;5087709;28;20501;-44
2021/10/23 03:42:45;;;;;;;17.80;2.70;;;6.00;99.90;;;;;;5088108;28;20024;-44
2021/10/23 03:45:10;;;;;;;13.35;3.60;;;6.00;99.90;;;;;;5087982;28;20323;-44
2021/10/23 03:47:36;;;;;;;13.73;4.10;;;6.00;99.90;;;;;;5086070;28;20077;-43
2021/10/23 03:50:04;;;;;;;17.83;3.83;;;5.90;99.90;;;;;;5087949;28;20103;-45
2021/10/23 03:52:30;;;;;;;21.15;2.95;;;5.90;99.90;;;;;;5086585;28;20020;-45
2021/10/23 03:54:55;;;;;;;9.88;2.63;;;6.00;99.90;;;;;;5075952;28;20263;-45
2021/10/23 03:57:20;;;;;;;13.88;3.70;;;5.90;99.90;;;;;;5082366;28;20035;-47
2021/10/23 03:59:46;;;;;;;12.43;3.25;;;6.00;99.90;;;;;;5091641;28;20071;-44
2021/10/23 04:02:11;;;;;;;10.95;2.83;;;6.00;99.90;;;;;;5091690;28;20063;-44
2021/10/23 04:04:37;;;;;;;11.85;3.30;;;6.00;99.90;;;;;;5091734;28;20046;-44
2021/10/23 04:07:03;;;;;;;11.88;2.65;;;6.00;99.90;;;;;;5089841;28;20043;-44
2021/10/23 04:09:29;;;;;;;16.13;4.43;;;6.10;99.90;;;;;;5077996;28;20023;-44
2021/10/23 04:11:54;;;;;;;13.10;3.10;;;6.10;99.90;;;;;;5071123;28;20052;-44
2021/10/23 04:14:20;;;;;;;10.98;3.13;;;6.10;99.90;;;;;;5071254;28;20103;-47
2021/10/23 04:16:45;;;;;;;10.43;3.03;;;6.00;99.90;;;;;;5071001;28;20100;-44
2021/10/23 04:19:11;;;;;;;7.47;2.85;;;6.10;99.90;;;;;;5070368;28;20033;-44
2021/10/23 04:21:36;;;;;;;11.02;3.15;;;6.10;99.90;;;;;;5070712;28;20031;-43
2021/10/23 04:24:02;;;;;;;18.33;3.33;;;6.10;99.90;;;;;;5059518;28;20029;-44
2021/10/23 04:26:28;;;;;;;21.00;3.75;;;6.00;99.90;;;;;;5058233;28;20356;-44
2021/10/23 04:28:53;;;;;;;21.25;4.72;;;6.00;99.90;;;;;;5061584;28;20033;-44
2021/10/23 04:31:19;;;;;;;15.80;2.90;;;6.00;99.90;;;;;;5059249;28;20441;-46
2021/10/23 04:33:44;;;;;;;15.60;2.33;;;5.90;99.90;;;;;;5066926;28;20462;-43
2021/10/23 04:36:10;;;;;;;14.45;3.58;;;5.90;99.90;;;;;;5061407;28;20406;-43
2021/10/23 04:38:36;;;;;;;13.77;3.00;;;5.90;99.90;;;;;;5058872;28;20478;-43
2021/10/23 04:41:02;;;;;;;19.58;3.47;;;5.90;99.90;;;;;;5058124;28;20059;-43
2021/10/23 04:43:27;;;;;;;14.60;3.17;;;5.80;99.90;;;;;;5060384;28;20072;-43
2021/10/23 04:45:52;;;;;;;20.48;3.58;;;5.90;99.90;;;;;;5049044;28;20112;-45
2021/10/23 04:48:18;;;;;;;16.80;2.65;;;5.90;99.90;;;;;;5049830;28;20083;-43
2021/10/23 04:50:43;;;;;;;12.52;2.83;;;5.80;99.90;;;;;;5052722;28;20029;-43
2021/10/23 04:53:09;;;;;;;15.75;3.60;;;5.80;99.90;;;;;;5053661;28;20029;-43
2021/10/23 04:55:35;;;;;;;16.20;4.05;;;5.90;99.90;;;;;;5066310;28;20359;-43
2021/10/23 04:58:00;;;;;;;18.98;4.60;;;5.80;99.90;;;;;;5081932;28;20107;-43
2021/10/23 05:00:26;;;;;;;14.55;3.53;;;5.80;99.90;;;;;;5090044;28;20109;-43
2021/10/23 05:02:52;;;;;;;14.27;3.38;;;5.80;99.90;;;;;;5090386;28;20031;-44
2021/10/23 05:05:18;;;;;;;13.10;3.10;;;5.80;99.90;;;;;;5090184;28;20039;-44
2021/10/23 05:07:44;;;;;;;16.85;3.58;;;5.70;99.90;;;;;;5071341;28;20502;-44
2021/10/23 05:10:10;;;;;;;9.40;3.00;;;5.70;99.90;;;;;;5081781;28;20036;-47
2021/10/23 05:12:35;;;;;;;17.65;4.07;;;5.70;99.90;;;;;;5078861;28;20023;-43
2021/10/23 05:15:01;;;;;;;13.35;2.85;;;5.70;99.90;;;;;;5081707;28;20482;-44
2021/10/23 05:17:26;;;;;;;17.52;3.42;;;5.70;99.90;;;;;;5080513;28;20021;-44
2021/10/23 05:19:52;;;;;;;15.52;2.97;;;5.80;99.90;;;;;;5080236;28;20043;-44
2021/10/23 05:22:17;;;;;;;14.05;2.83;;;5.80;99.90;;;;;;5088534;28;20028;-43
2021/10/23 05:24:43;;;;;;;12.73;3.53;;;5.80;99.90;;;;;;5088197;28;20039;-43
2021/10/23 05:27:08;;;;;;;23.05;3.70;;;5.90;99.90;;;;;;5068926;28;20098;-46
2021/10/23 05:29:33;;;;;;;17.05;4.15;;;5.80;99.90;;;;;;5086627;28;20031;-43
2021/10/23 05:31:59;;;;;;;12.88;3.63;;;5.90;99.90;;;;;;5079624;28;20013;-44
2021/10/23 05:34:24;;;;;;;16.25;3.45;;;5.90;99.90;;;;;;5085237;28;20481;-44
2021/10/23 05:36:50;;;;;;;14.40;3.00;;;5.90;99.90;;;;;;5090004;28;20025;-44
2021/10/23 05:39:16;;;;;;;20.75;4.38;;;5.90;99.90;;;;;;5089258;28;20501;-47
2021/10/23 05:41:41;;;;;;;15.05;3.45;;;5.90;99.90;;;;;;5089334;28;20103;-44
2021/10/23 05:44:08;;;;;;;14.13;2.75;;;5.90;99.90;;;;;;5089759;28;20031;-45
2021/10/23 05:46:33;;;;;;;13.82;3.78;;;5.90;99.90;;;;;;5089286;28;20039;-44
2021/10/23 05:48:59;;;;;;;17.20;2.97;;;5.90;99.90;;;;;;5088873;28;20323;-43
2021/10/23 05:51:25;;;;;;;16.98;3.28;;;5.90;99.90;;;;;;5089349;28;20538;-46
2021/10/23 05:53:51;;;;;;;13.10;4.05;;;5.90;99.90;;;;;;5089362;28;20016;-43
2021/10/23 05:56:16;;;;;;;19.83;4.47;;;5.90;99.90;;;;;;5073040;28;20089;-43
2021/10/23 05:58:42;;;;;;;12.00;2.67;;;5.80;99.90;;;;;;5086505;28;20036;-44
2021/10/23 06:01:08;;;;;;;19.45;5.15;;;5.80;99.90;;;;;;5089389;28;20035;-43
2021/10/23 06:03:36;;;;;;;20.85;5.22;;;5.90;99.90;;;;;;5089229;28;20099;-44
2021/10/23 06:06:07;;;;;;;11.13;3.22;;;5.80;99.90;;;;;;5089372;28;20035;-46
2021/10/23 06:08:34;;;;;;;13.05;3.50;;;5.80;99.90;;;;;;5088361;28;20019;-46
2021/10/23 06:11:00;;;;;;;20.25;4.70;;;5.80;99.90;;;;;;5088973;28;20032;-46
2021/10/23 06:13:25;;;;;;;11.35;3.05;;;5.80;99.90;;;;;;5087574;28;20012;-44
2021/10/23 06:15:51;;;;;;;15.02;5.18;;;5.70;99.90;;;;;;5089069;28;20031;-43
2021/10/23 06:18:17;;;;;;;11.18;3.67;;;5.70;99.90;;;;;;5087802;28;20055;-45
2021/10/23 06:20:44;;;;;;;14.88;3.53;;;5.70;99.90;;;;;;5088799;28;20040;-44
2021/10/23 06:23:10;;;;;;;16.63;3.33;;;5.70;99.90;;;;;;5082576;28;20076;-44
2021/10/23 06:25:36;;;;;;;15.85;3.80;;;5.70;99.90;;;;;;5076199;28;20036;-44
2021/10/23 06:28:01;;;;;;;14.88;3.38;;;5.70;99.90;;;;;;5075541;28;20077;-46
2021/10/23 06:30:27;;;;;;;17.42;4.00;;;5.70;99.90;;;;;;5068370;28;20024;-45
2021/10/23 06:32:54;;;;;;;17.90;3.83;;;5.80;99.90;;;;;;5068397;28;20037;-44
2021/10/23 06:35:20;;;;;;;19.70;3.85;;;5.90;99.90;;;;;;5068905;28;20086;-47
2021/10/23 06:37:46;;;;;;;14.73;2.80;;;5.90;99.90;;;;;;5067707;28;20025;-44
2021/10/23 06:40:12;;;;;;;21.42;3.55;;;6.00;99.90;;;;;;5068212;28;20415;-45
2021/10/23 06:42:39;;;;;;;14.43;3.58;;;6.10;99.90;;;;;;5065174;28;20076;-45
2021/10/23 06:45:07;;;;;;;13.38;2.83;;;6.10;99.90;;;;;;5075513;28;20029;-44
2021/10/23 06:47:32;;;;;;;17.20;3.63;;;6.20;99.90;;;;;;5066490;28;20409;-44
2021/10/23 06:49:58;;;;;;;9.48;2.85;;;6.20;99.90;;;;;;5068462;28;20092;-44
2021/10/23 06:52:25;;;;;;;12.82;3.42;;;6.20;99.90;;;;;;5068201;28;20021;-44
2021/10/23 06:54:52;;;;;;;15.68;3.58;;;6.20;99.90;;;;;;5065476;28;20067;-45
2021/10/23 06:57:17;;;;;;;13.43;2.83;;;6.20;99.90;;;;;;5079229;28;20111;-44
2021/10/23 06:59:43;;;;;;;13.02;3.00;;;6.20;99.90;;;;;;5088346;28;20168;-43
2021/10/23 07:02:08;;;;;;;17.98;4.97;;;6.30;99.90;;;;;;5088886;28;20382;-45
2021/10/23 07:04:34;;;;;;;27.02;4.00;;;6.40;99.90;;;;;;5088240;28;20028;-44
2021/10/23 07:07:00;;;;;;;15.85;3.90;;;6.50;99.90;;;;;;5074520;28;20434;-43
2021/10/23 07:09:25;;;;;;;11.55;2.92;;;6.60;99.90;;;;;;5064510;28;20104;-46
2021/10/23 07:11:51;;;;;;;23.27;3.13;;;6.70;99.90;;;;;;5061071;28;21225;-43
2021/10/23 07:14:16;;;;;;;13.18;3.13;;;6.70;99.90;;;;;;5062920;28;20025;-47
2021/10/23 07:16:43;;;;;;;14.48;3.13;;;6.80;99.90;;;;;;5058314;28;20489;-44
2021/10/23 07:19:08;;;;;;;8.60;2.80;;;6.90;99.90;;;;;;5060721;28;20448;-46
2021/10/23 07:21:34;;;;;;;14.63;3.40;;;6.90;99.90;;;;;;5057423;28;20123;-49
2021/10/23 07:23:59;;;;;;;12.75;3.13;;;7.00;99.90;;;;;;5062263;28;20032;-47
2021/10/23 07:26:25;;;;;;;18.23;3.10;;;7.00;99.90;;;;;;5067896;28;20071;-45
2021/10/23 07:28:51;;;;;;;13.27;3.25;;;7.00;99.90;;;;;;5067588;28;20044;-47
2021/10/23 07:31:17;;;;;;;13.70;3.78;;;7.00;99.90;;;;;;5071964;28;20103;-44
2021/10/23 07:33:43;;;;;;;9.18;2.33;;;7.10;99.90;;;;;;5079296;28;20103;-45
2021/10/23 07:36:08;;;;;;;17.83;2.95;;;7.20;99.90;;;;;;5091872;28;20079;-44
2021/10/23 07:38:34;;;;;;;17.98;3.35;;;7.30;99.90;;;;;;5090829;28;20166;-48
2021/10/23 07:41:00;;;;;;;13.68;3.58;;;7.30;99.90;;;;;;5091658;28;20497;-44
2021/10/23 07:43:25;;;;;;;22.25;3.88;;;7.20;99.90;;;;;;5091904;28;20035;-46
2021/10/23 07:45:51;;;;;;;11.10;2.53;;;7.30;99.90;;;;;;5092117;28;20482;-49
2021/10/23 07:48:17;;;;;;;9.38;3.00;;;7.30;99.90;;;;;;5090789;28;20020;-45
2021/10/23 07:50:48;;;;;;;15.43;3.42;;;7.30;99.90;;;;;;5091559;28;20024;-46
2021/10/23 07:53:14;;;;;;;10.13;3.10;;;7.40;99.90;;;;;;5061980;28;20415;-45
2021/10/23 07:55:39;;;;;;;13.27;3.40;;;7.40;99.90;;;;;;5054252;28;20043;-45
2021/10/23 07:58:06;;;;;;;13.13;3.08;;;7.40;99.90;;;;;;5080370;28;20031;-46
2021/10/23 08:00:32;;;;;;;10.57;2.85;;;7.40;99.90;;;;;;5090547;28;20116;-46
2021/10/23 08:03:01;;;;;;;18.27;3.80;;;7.40;99.90;;;;;;5089286;28;20533;-47
2021/10/23 08:05:31;;;;;;;11.02;3.42;;;7.50;99.90;;;;;;5090509;28;20028;-45
2021/10/23 08:07:57;;;;;;;19.13;3.00;;;7.70;99.90;;;;;;5089565;28;20024;-46
2021/10/23 08:10:24;;;;;;;18.38;3.83;;;7.90;99.90;;;;;;5090427;28;20064;-48
2021/10/23 08:12:51;;;;;;;10.88;2.72;;;8.20;99.90;;;;;;5089892;28;20017;-47
2021/10/23 08:15:16;;;;;;;8.23;2.67;;;8.40;99.90;;;;;;5082478;28;20036;-48
2021/10/23 08:17:42;;;;;;;15.48;3.15;;;8.60;99.90;;;;;;5075307;28;20119;-46
2021/10/23 08:20:09;;;;;;;14.85;2.72;;;8.70;99.90;;;;;;5072202;28;20044;-46
2021/10/23 08:22:35;;;;;;;14.27;3.30;;;8.90;99.90;;;;;;5083170;28;20446;-45
2021/10/23 08:25:04;;;;;;;19.52;3.28;;;8.90;99.90;;;;;;5080440;28;20039;-45
2021/10/23 08:27:32;;;;;;;12.98;3.63;;;8.90;99.90;;;;;;5089124;28;20489;-45
2021/10/23 08:29:59;;;;;;;14.90;3.50;;;8.80;99.90;;;;;;5090087;28;20165;-45
2021/10/23 08:32:25;;;;;;;11.60;2.60;;;8.80;99.90;;;;;;5090334;28;20020;-49
2021/10/23 08:34:50;;;;;;;11.25;3.10;;;8.90;99.90;;;;;;5089603;28;20046;-45
2021/10/23 08:37:16;;;;;;;14.55;2.90;;;9.00;99.90;;;;;;5089086;28;20036;-46
2021/10/23 08:39:42;;;;;;;15.95;3.40;;;9.10;99.90;;;;;;5089395;28;20108;-45
2021/10/23 08:42:09;;;;;;;13.75;3.40;;;9.20;99.90;;;;;;5089904;28;20028;-47
2021/10/23 08:44:37;;;;;;;12.65;2.85;;;9.40;99.90;;;;;;5091215;28;20015;-46
2021/10/23 08:47:05;;;;;;;11.75;2.83;;;9.40;99.90;;;;;;5090640;28;20044;-46
2021/10/23 08:49:31;;;;;;;10.27;2.30;;;9.40;99.90;;;;;;5080327;28;20077;-46
2021/10/23 08:51:57;;;;;;;14.35;3.00;;;9.30;99.90;;;;;;5081556;28;20020;-46
2021/10/23 08:54:24;;;;;;;15.75;3.22;;;9.30;99.90;;;;;;5090164;28;20024;-45
2021/10/23 08:56:49;;;;;;;8.10;2.88;;;9.30;99.90;;;;;;5082973;28;20038;-47
2021/10/23 08:59:14;;;;;;;11.30;2.90;;;9.40;99.90;;;;;;5084708;28;20114;-46
2021/10/23 09:01:40;;;;;;;11.15;2.95;;;9.50;99.90;;;;;;5091750;28;20035;-46
2021/10/23 09:04:05;;;;;;;13.38;3.50;;;9.70;99.90;;;;;;5091522;28;20651;-47
2021/10/23 09:06:33;;;;;;;10.35;2.33;;;9.50;99.90;;;;;;5091551;28;20067;-45
2021/10/23 09:09:06;;;;;;;14.32;2.95;;;9.40;99.90;;;;;;5087929;28;20378;-48
2021/10/23 09:11:34;;;;;;;13.70;2.90;;;9.30;99.90;;;;;;5088388;28;20115;-46
2021/10/23 09:14:18;;;;;;;12.18;2.67;;;9.30;99.90;;;;;;5089383;28;20120;-46
2021/10/23 09:16:45;;;;;;;12.35;2.45;;;9.30;99.90;;;;;;5089824;28;20085;-46
2021/10/23 09:19:10;;;;;;;10.02;3.03;;;9.50;99.90;;;;;;5088995;28;20115;-47
2021/10/23 09:21:38;;;;;;;20.13;3.03;;;9.60;99.90;;;;;;5089567;28;20104;-46
2021/10/23 09:24:23;;;;;;;17.20;3.10;;;9.70;99.90;;;;;;5089203;28;20060;-47
2021/10/23 09:26:50;;;;;;;16.42;2.28;;;9.70;99.90;;;;;;5084989;28;20027;-45
2021/10/23 09:29:24;;;;;;;8.48;2.30;;;9.70;99.90;;;;;;5083106;28;20016;-46
2021/10/23 09:31:54;;;;;;;13.85;2.40;;;9.70;99.90;;;;;;5089548;28;20016;-49
2021/10/23 09:34:23;;;;;;;14.45;2.80;;;9.70;99.90;;;;;;5089212;28;20031;-47
2021/10/23 09:36:54;;;;;;;18.02;3.42;;;9.70;99.90;;;;;;5088914;28;20186;-45
2021/10/23 09:39:25;;;;;;;;;;;9.80;99.90;;;;;;5089001;28;20024;-46
2021/10/23 09:42:05;;;;;;;11.93;3.10;;;9.80;99.90;;;;;;5088690;28;19986;-47
2021/10/23 09:44:31;;;;;;;16.95;2.95;;;9.90;99.90;;;;;;5088875;28;20405;-46
2021/10/23 09:46:58;;;;;;;16.13;2.88;;;10.10;99.90;;;;;;5088432;28;20055;-46
2021/10/23 09:49:23;;;;;;;7.82;2.15;;;10.50;99.90;;;;;;5088603;28;20024;-46
2021/10/23 09:52:03;;;;;;;11.13;3.33;;;11.00;99.90;;;;;;5088140;28;20024;-46
2021/10/23 09:54:28;;;;;;;11.02;3.30;;;11.30;99.90;;;;;;5087521;28;20024;-47
2021/10/23 09:56:54;;;;;;;11.57;2.70;;;11.40;99.90;;;;;;5069420;28;20118;-46
2021/10/23 09:59:29;;;;;;;16.38;2.60;;;11.80;99.90;;;;;;5080143;28;20031;-48
2021/10/23 10:01:58;;;;;;;10.05;2.88;;;12.00;99.90;;;;;;5088660;28;20035;-49
2021/10/23 10:04:25;;;;;;;14.25;2.90;;;11.90;99.90;;;;;;5089011;28;20019;-49
2021/10/23 10:06:51;;;;;;;9.30;2.20;;;11.90;99.90;;;;;;5087043;28;20024;-49
2021/10/23 10:09:22;;;;;;;7.93;2.63;;;11.90;99.90;;;;;;5070975;28;20029;-46
2021/10/23 10:11:49;;;;;;;9.02;2.47;;;12.00;99.90;;;;;;5062754;28;20029;-49
2021/10/23 10:14:16;;;;;;;15.77;2.70;;;12.40;99.90;;;;;;5068255;28;20061;-48
2021/10/23 10:16:45;;;;;;;7.80;2.35;;;12.60;99.90;;;;;;5068365;28;20383;-46
2021/10/23 10:19:13;;;;;;;8.73;2.95;;;12.80;99.90;;;;;;5067537;28;20028;-46
2021/10/23 10:21:39;;;;;;;8.50;2.53;;;13.00;99.90;;;;;;5067017;28;20486;-46
2021/10/23 10:24:28;;;;;;;13.05;2.55;;;13.00;99.90;;;;;;5068134;28;20040;-45
2021/10/23 10:26:58;;;;;;;7.35;2.20;;;13.40;99.90;;;;;;5062571;28;20458;-46
2021/10/23 10:29:45;;;;;;;11.82;2.70;;;13.60;99.90;;;;;;5079686;28;20553;-49
2021/10/23 10:32:24;;;;;;;9.75;2.00;;;13.70;99.90;;;;;;5088228;28;20024;-49
2021/10/23 10:43:19;;;;;;;7.07;2.40;;;15.80;96.90;;;;;;5087953;28;20401;-49
2021/10/23 10:45:52;;;;;;;10.75;2.35;;;15.30;97.40;;;;;;5064257;28;20044;-46
2021/10/23 10:48:18;;;;;;;6.53;1.92;;;14.60;98.90;;;;;;5087644;28;20638;-46
2021/10/23 10:50:43;;;;;;;10.02;2.20;;;14.00;99.80;;;;;;5088123;28;20031;-48
2021/10/23 10:53:14;;;;;;;8.05;2.10;;;13.60;99.90;;;;;;5087852;28;20573;-48
2021/10/23 10:55:41;;;;;;;5.35;1.63;;;13.50;99.90;;;;;;5085805;28;20024;-45
2021/10/23 10:58:10;;;;;;;6.05;1.80;;;13.50;99.90;;;;;;5068393;28;20498;-48
2021/10/23 11:00:45;;;;;;;7.35;1.77;;;13.50;99.90;;;;;;5085709;28;20020;-46
2021/10/23 11:03:37;;;;;;;8.90;2.53;;;13.60;99.90;;;;;;5089178;28;20023;-46
2021/10/23 11:06:34;;;;;;;6.53;1.90;;;13.60;99.90;;;;;;5092363;28;20060;-47
2021/10/23 11:09:12;;;;;;;8.38;2.72;;;14.50;99.90;;;;;;5074057;28;20043;-46
2021/10/23 11:11:49;;;;;;;6.00;1.85;;;14.50;99.00;;;;;;5092272;28;20262;-45
2021/10/23 11:14:24;;;;;;;4.32;1.83;;;14.80;98.60;;;;;;5092348;28;20091;-46
2021/10/23 11:16:56;;;;;;;5.78;1.90;;;15.00;97.20;;;;;;5092239;28;20016;-49
2021/10/23 11:19:30;;;;;;;6.38;1.65;;;14.80;97.40;;;;;;5090762;28;20024;-47
2021/10/23 11:22:00;;;;;;;13.77;2.15;;;14.40;97.70;;;;;;5092342;28;20035;-49
2021/10/23 11:24:28;;;;;;;3.03;1.42;;;14.00;98.70;;;;;;5092782;28;20039;-50
2021/10/23 11:26:55;;;;;;;6.60;1.55;;;13.80;99.20;;;;;;5078490;28;20028;-46
2021/10/23 11:29:28;;;;;;;7.03;1.50;;;13.50;99.90;;;;;;5083262;28;20032;-47
2021/10/23 11:32:01;;;;;;;15.70;2.55;;;13.50;99.90;;;;;;5092214;28;20448;-46
2021/10/23 11:34:29;;;;;;;8.55;2.00;;;13.50;99.90;;;;;;5092084;28;20016;-47
2021/10/23 11:37:01;;;;;;;13.60;2.33;;;13.60;99.90;;;;;;5091769;28;20020;-48
2021/10/23 11:39:34;;;;;;;10.57;2.13;;;13.50;99.80;;;;;;5091642;28;20105;-48
2021/10/23 11:42:26;;;;;;;6.40;1.98;;;13.40;99.90;;;;;;5091714;28;20024;-45
2021/10/23 11:44:53;;;;;;;9.38;2.95;;;13.30;99.90;;;;;;5092083;28;20024;-46
2021/10/23 11:47:25;;;;;;;7.28;2.60;;;13.20;99.90;;;;;;5091273;28;20722;-45
2021/10/23 11:49:51;;;;;;;7.90;2.28;;;13.10;99.90;;;;;;5091757;28;20020;-47
2021/10/23 11:52:19;;;;;;;8.35;2.45;;;12.90;99.90;;;;;;5091611;28;20027;-49
2021/10/23 11:54:48;;;;;;;7.70;1.98;;;12.60;99.90;;;;;;5091590;28;20097;-46
2021/10/23 11:57:42;;;;;;;7.78;2.25;;;12.50;99.90;;;;;;5076795;28;20020;-47
2021/10/23 12:00:18;;;;;;;7.25;2.75;;;12.40;99.90;;;;;;5077905;28;20059;-47
2021/10/23 12:02:47;;;;;;;7.30;2.38;;;12.40;99.90;;;;;;5091649;28;20435;-49
2021/10/23 12:05:42;;;;;;;6.87;1.80;;;12.90;99.90;;;;;;5091920;28;20028;-48
2021/10/23 12:08:30;;;;;;;7.97;1.83;;;13.20;99.90;;;;;;5085517;28;20466;-46
2021/10/23 12:11:15;;;;;;;9.88;2.15;;;13.20;99.90;;;;;;5091260;28;20024;-46
2021/10/23 12:13:42;;;;;;;7.18;1.90;;;13.10;99.90;;;;;;5091663;28;20250;-49
2021/10/23 12:16:09;;;;;;;10.48;1.88;;;12.90;99.90;;;;;;5088961;28;20509;-47
2021/10/23 12:18:42;;;;;;;7.38;2.22;;;12.70;99.90;;;;;;5090624;28;20098;-46
2021/10/23 12:21:16;;;;;;;11.23;2.33;;;12.50;99.90;;;;;;5091554;28;20036;-46
2021/10/23 12:23:44;;;;;;;7.32;1.92;;;12.40;99.90;;;;;;5091542;28;20067;-47
2021/10/23 12:26:09;;;;;;;11.73;2.10;;;12.20;99.90;;;;;;5086071;28;20097;-46
2021/10/23 12:29:06;;;;;;;10.35;2.10;;;12.20;99.90;;;;;;5075707;28;20533;-49
2021/10/23 12:31:57;;;;;;;8.68;2.10;;;12.10;99.90;;;;;;5081656;28;20078;-47
2021/10/23 12:34:25;;;;;;;8.32;1.85;;;12.10;99.90;;;;;;5091019;28;20024;-46
2021/10/23 12:37:00;;;;;;;6.55;1.92;;;12.00;99.90;;;;;;5091025;28;20020;-46
2021/10/23 12:39:28;;;;;;;5.78;1.77;;;12.00;99.90;;;;;;5091025;28;20054;-47
2021/10/23 12:41:56;;;;;;;11.50;1.92;;;12.10;99.90;;;;;;5090621;28;20039;-45
2021/10/23 12:44:23;;;;;;;8.85;1.90;;;11.90;99.90;;;;;;5090951;28;20024;-45
2021/10/23 12:46:51;;;;;;;14.30;2.00;;;11.90;99.90;;;;;;5090595;28;20274;-45
2021/10/23 12:49:16;;;;;;;11.65;2.33;;;11.90;99.90;;;;;;5090359;28;20278;-46
2021/10/23 12:51:42;;;;;;;9.63;1.95;;;11.90;99.90;;;;;;5090467;28;20077;-46
2021/10/23 12:54:08;;;;;;;6.75;1.95;;;11.80;99.90;;;;;;5089203;28;20367;-46
2021/10/23 12:56:33;;;;;;;7.03;2.20;;;11.80;99.90;;;;;;5078556;28;20029;-46